Time;durP1;ratioP1;P1;durP2;ratioP2;P2;SDS_P1;SDS_P2;PMS_P1;PMS_P2;Temp;Humidity;BMP_temperature;BMP_pressure;BME280_temperature;BME280_humidity;BME280_pressure;Samples;Min_cycle;Max_cycle;Signal;HPM_P1;HPM_P2
2022/04/10 00:01:49;;;;;;;10.70;4.73;;;;;;;1.43;96.04;99226.22;4184373;28;20671;-65
2022/04/10 00:04:16;;;;;;;9.80;4.40;;;;;;;1.44;96.01;99229.66;4187668;28;22729;-66
2022/04/10 00:06:42;;;;;;;10.07;4.30;;;;;;;1.45;95.86;99228.69;4184201;28;21263;-68
2022/04/10 00:09:10;;;;;;;8.63;4.17;;;;;;;1.47;95.80;99234.66;4183600;28;20815;-66
2022/04/10 00:11:36;;;;;;;12.50;4.30;;;;;;;1.36;96.15;99232.88;4183070;28;20505;-69
2022/04/10 00:14:03;;;;;;;14.73;4.20;;;;;;;1.37;96.01;99234.53;4195758;28;20236;-68
2022/04/10 00:16:29;;;;;;;11.17;4.33;;;;;;;1.35;96.23;99231.19;4184953;28;20234;-66
2022/04/10 00:19:01;;;;;;;10.07;4.43;;;;;;;1.26;96.20;99235.34;4172010;28;25577;-67
2022/04/10 00:21:28;;;;;;;10.47;4.33;;;;;;;1.21;96.87;99244.50;4202551;28;20299;-65
2022/04/10 00:23:58;;;;;;;10.03;4.80;;;;;;;1.27;96.84;99236.19;4185071;28;22574;-67
2022/04/10 00:26:25;;;;;;;10.80;4.63;;;;;;;1.21;96.90;99242.69;4184841;28;23159;-68
2022/04/10 00:28:51;;;;;;;10.83;4.40;;;;;;;1.15;96.96;99242.34;4174859;28;20256;-68
2022/04/10 00:31:18;;;;;;;8.50;4.83;;;;;;;1.18;97.18;99242.09;4187596;28;21004;-66
2022/04/10 00:33:45;;;;;;;7.67;4.30;;;;;;;1.12;97.11;99246.00;4176266;28;20245;-68
2022/04/10 00:36:11;;;;;;;10.20;4.80;;;;;;;1.05;97.54;99247.41;4186504;28;23072;-66
2022/04/10 00:38:38;;;;;;;10.07;4.43;;;;;;;0.99;98.16;99238.22;4191403;28;21091;-67
2022/04/10 00:41:05;;;;;;;12.90;4.47;;;;;;;1.02;98.21;99242.41;4164651;28;22064;-66
2022/04/10 00:43:34;;;;;;;14.27;4.83;;;;;;;1.00;98.05;99242.50;4189198;28;20239;-67
2022/04/10 00:46:00;;;;;;;14.00;4.50;;;;;;;0.95;98.33;99251.66;4179920;28;20234;-65
2022/04/10 00:48:27;;;;;;;13.07;4.70;;;;;;;0.97;98.49;99249.78;4176736;28;21097;-68
2022/04/10 00:53:41;;;;;;;11.47;5.00;;;;;;;0.88;99.21;99264.38;4196084;28;20685;-68
2022/04/10 00:56:07;;;;;;;9.57;4.47;;;;;;;0.79;99.28;99263.25;4185081;28;20267;-66
2022/04/10 00:58:34;;;;;;;11.57;5.00;;;;;;;0.79;99.74;99262.44;4185327;28;20244;-70
2022/04/10 01:01:01;;;;;;;11.83;4.90;;;;;;;0.75;99.45;99271.44;4183786;28;21585;-66
2022/04/10 01:03:27;;;;;;;12.07;4.87;;;;;;;0.67;100.00;99276.41;4165001;28;20234;-66
2022/04/10 01:05:55;;;;;;;15.03;4.80;;;;;;;0.71;100.00;99273.47;4177277;28;20234;-67
2022/04/10 01:08:22;;;;;;;12.53;4.80;;;;;;;0.66;100.00;99282.59;4186095;28;21712;-67
2022/04/10 01:10:48;;;;;;;8.27;4.67;;;;;;;0.61;100.00;99283.78;4191144;28;20324;-68
2022/04/10 01:13:15;;;;;;;8.93;4.70;;;;;;;0.58;100.00;99285.75;4190781;28;21593;-67
2022/04/10 01:15:42;;;;;;;10.87;4.90;;;;;;;0.59;100.00;99292.69;4186305;28;20233;-66
2022/04/10 01:18:08;;;;;;;11.97;4.67;;;;;;;0.55;100.00;99283.38;4187946;28;21372;-67
2022/04/10 01:20:35;;;;;;;12.97;4.77;;;;;;;0.49;100.00;99294.25;4175543;28;20320;-68
2022/04/10 01:23:01;;;;;;;10.13;4.67;;;;;;;0.45;100.00;99291.03;4188392;28;20247;-66
2022/04/10 01:25:29;;;;;;;11.23;5.30;;;;;;;0.41;100.00;99290.41;4183707;28;20228;-66
2022/04/10 01:27:56;;;;;;;10.63;4.93;;;;;;;0.40;100.00;99298.38;4178211;28;20306;-68
2022/04/10 01:30:23;;;;;;;10.10;4.83;;;;;;;0.36;100.00;99297.75;4180414;28;20237;-66
2022/04/10 01:32:50;;;;;;;11.70;4.67;;;;;;;0.33;100.00;99292.75;4177007;28;20289;-68
2022/04/10 01:35:17;;;;;;;10.70;5.03;;;;;;;0.29;100.00;99304.38;4190672;28;20331;-67
2022/04/10 01:37:45;;;;;;;14.40;5.27;;;;;;;0.27;100.00;99308.88;4175405;28;20236;-66
2022/04/10 01:40:12;;;;;;;10.20;5.27;;;;;;;0.25;100.00;99299.44;4181462;28;20247;-66
2022/04/10 01:42:38;;;;;;;10.93;4.77;;;;;;;0.32;100.00;99303.31;4203339;28;21325;-69
2022/04/10 01:45:05;;;;;;;15.03;5.10;;;;;;;0.32;100.00;99312.00;4167630;28;20233;-67
2022/04/10 01:47:32;;;;;;;10.50;4.53;;;;;;;0.31;100.00;99307.72;4178150;28;20869;-65
2022/04/10 01:49:58;;;;;;;11.47;4.53;;;;;;;0.25;100.00;99310.75;4191040;28;21051;-68
2022/04/10 01:52:25;;;;;;;14.17;4.27;;;;;;;0.20;100.00;99312.84;4174776;28;20230;-71
2022/04/10 01:54:53;;;;;;;10.53;4.67;;;;;;;0.17;100.00;99313.91;4174376;28;20284;-67
2022/04/10 01:57:19;;;;;;;12.27;4.10;;;;;;;0.14;100.00;99316.75;4176701;28;20236;-69
2022/04/10 01:59:46;;;;;;;9.77;4.10;;;;;;;0.11;100.00;99308.25;4191300;28;22071;-69
2022/04/10 02:02:12;;;;;;;9.57;4.63;;;;;;;0.12;100.00;99310.78;4173916;28;20744;-67
2022/04/10 02:04:39;;;;;;;10.03;4.10;;;;;;;0.10;100.00;99317.06;4168919;28;20244;-68
2022/04/10 02:07:06;;;;;;;10.30;3.97;;;;;;;0.10;100.00;99317.91;4168577;28;20238;-68
2022/04/10 02:09:32;;;;;;;9.17;4.20;;;;;;;0.10;100.00;99323.13;4278646;28;20232;-68
2022/04/10 02:11:59;;;;;;;8.03;4.20;;;;;;;0.12;100.00;99330.88;4181582;28;21928;-66
2022/04/10 02:14:25;;;;;;;13.83;4.60;;;;;;;0.08;100.00;99330.25;4200767;28;20414;-66
2022/04/10 02:16:52;;;;;;;10.57;4.37;;;;;;;0.13;100.00;99343.00;4180149;28;20241;-67
2022/04/10 02:19:18;;;;;;;11.40;4.23;;;;;;;0.09;100.00;99346.75;4193550;28;20271;-67
2022/04/10 02:21:45;;;;;;;12.87;4.03;;;;;;;0.11;100.00;99340.47;4196739;28;20246;-66
2022/04/10 02:24:13;;;;;;;11.67;4.30;;;;;;;0.10;100.00;99343.22;4176970;28;20237;-67
2022/04/10 02:26:39;;;;;;;9.53;4.10;;;;;;;0.13;100.00;99337.78;4160494;28;20230;-67
2022/04/10 02:29:06;;;;;;;10.40;4.80;;;;;;;0.07;100.00;99340.78;4183818;28;20252;-68
2022/04/10 02:31:32;;;;;;;10.23;4.40;;;;;;;0.27;100.00;99353.34;4178431;28;20244;-66
2022/04/10 02:34:00;;;;;;;12.47;4.37;;;;;;;0.37;100.00;99350.91;4173440;28;20225;-66
2022/04/10 02:36:26;;;;;;;11.47;3.70;;;;;;;0.47;99.97;99351.09;4183330;28;20240;-67
2022/04/10 02:38:54;;;;;;;9.27;3.70;;;;;;;0.51;99.70;99355.19;4203545;28;20679;-67
2022/04/10 02:41:20;;;;;;;10.17;3.60;;;;;;;0.63;99.01;99349.94;4189137;28;21806;-67
2022/04/10 02:43:47;;;;;;;7.60;3.60;;;;;;;0.57;98.57;99357.38;4189365;28;21366;-66
2022/04/10 02:46:14;;;;;;;10.43;3.90;;;;;;;0.61;98.55;99351.00;4182070;28;20243;-68
2022/04/10 02:48:40;;;;;;;11.40;3.37;;;;;;;0.66;97.75;99355.91;4196299;28;20271;-66
2022/04/10 02:51:07;;;;;;;9.23;3.00;;;;;;;0.72;97.26;99356.28;4184695;28;20248;-67
2022/04/10 02:53:34;;;;;;;12.30;3.50;;;;;;;0.80;96.30;99356.59;4159950;28;20238;-66
2022/04/10 02:56:00;;;;;;;11.23;3.57;;;;;;;0.78;95.99;99357.66;4177568;28;21625;-67
2022/04/10 02:58:27;;;;;;;9.60;3.50;;;;;;;0.79;95.94;99365.38;4172423;28;22084;-67
2022/04/10 03:00:54;;;;;;;10.33;3.60;;;;;;;0.80;95.80;99366.25;4189020;28;20705;-67
2022/04/10 03:03:20;;;;;;;10.37;4.13;;;;;;;0.79;95.31;99367.16;4161138;28;20277;-67
2022/04/10 03:05:47;;;;;;;11.70;3.50;;;;;;;0.81;95.35;99367.91;4185834;28;21308;-66
2022/04/10 03:08:14;;;;;;;12.53;3.50;;;;;;;0.76;94.98;99370.00;4198029;28;22487;-68
2022/04/10 03:10:40;;;;;;;8.77;3.40;;;;;;;0.78;94.91;99376.81;4165650;28;22200;-68
2022/04/10 03:13:07;;;;;;;10.70;3.40;;;;;;;0.77;95.25;99377.78;4163981;28;20257;-68
2022/04/10 03:15:33;;;;;;;10.93;3.47;;;;;;;0.84;94.76;99380.75;4188274;28;20235;-69
2022/04/10 03:18:01;;;;;;;10.53;3.20;;;;;;;0.89;94.62;99376.06;4183444;28;20236;-68
2022/04/10 03:20:29;;;;;;;8.30;2.63;;;;;;;0.88;94.35;99374.38;4170469;28;20247;-67
2022/04/10 03:22:55;;;;;;;7.07;2.80;;;;;;;0.95;94.03;99378.22;4196036;28;20224;-66
2022/04/10 03:25:22;;;;;;;8.40;3.33;;;;;;;1.03;93.71;99390.75;4175258;28;20250;-67
2022/04/10 03:27:49;;;;;;;10.67;2.97;;;;;;;0.98;93.43;99383.25;4164833;28;20316;-67
2022/04/10 03:30:15;;;;;;;11.57;3.10;;;;;;;0.94;93.59;99387.03;4192620;28;21322;-66
2022/04/10 03:32:42;;;;;;;7.00;2.80;;;;;;;0.98;93.52;99392.88;4204619;28;21894;-65
2022/04/10 03:35:09;;;;;;;11.93;3.23;;;;;;;0.96;93.10;99384.28;4188235;28;20359;-66
2022/04/10 03:37:35;;;;;;;9.17;2.73;;;;;;;0.94;93.17;99391.44;4190139;28;20236;-67
2022/04/10 03:40:04;;;;;;;9.63;3.40;;;;;;;0.90;93.24;99396.06;4211795;28;20241;-67
2022/04/10 03:42:41;;;;;;;9.67;3.20;;;;;;;0.88;93.66;99399.72;4172128;28;22109;-67
2022/04/10 03:45:09;;;;;;;12.80;3.70;;;;;;;0.84;93.94;99399.09;4179443;28;20249;-67
2022/04/10 03:47:39;;;;;;;12.60;3.57;;;;;;;0.78;93.72;99407.41;4177052;28;22471;-67
2022/04/10 03:50:06;;;;;;;11.37;3.43;;;;;;;0.88;93.74;99397.94;4183874;28;20341;-66
2022/04/10 03:52:32;;;;;;;8.43;3.30;;;;;;;0.88;93.24;99402.34;4179892;28;20251;-67
2022/04/10 03:54:59;;;;;;;7.97;3.50;;;;;;;0.90;92.89;99409.16;4186339;28;20278;-68
2022/04/10 03:57:26;;;;;;;7.80;3.23;;;;;;;0.89;93.05;99401.38;4191858;28;22170;-67
2022/04/10 03:59:52;;;;;;;9.70;3.50;;;;;;;0.87;93.04;99413.75;4164963;28;20238;-67
2022/04/10 04:02:19;;;;;;;7.87;3.20;;;;;;;0.81;93.02;99408.00;4197843;28;20647;-66
2022/04/10 04:04:47;;;;;;;9.87;3.23;;;;;;;0.87;92.89;99417.22;4183275;28;20254;-66
2022/04/10 04:07:13;;;;;;;14.13;3.20;;;;;;;0.92;92.90;99420.34;4173049;28;20737;-69
2022/04/10 04:09:40;;;;;;;11.07;3.50;;;;;;;0.76;93.12;99425.84;4166939;28;20252;-67
2022/04/10 04:12:07;;;;;;;12.97;3.00;;;;;;;0.66;94.08;99431.84;4230709;28;21025;-68
2022/04/10 04:14:35;;;;;;;9.63;3.60;;;;;;;0.70;94.25;99435.88;4203570;28;20229;-68
2022/04/10 04:17:02;;;;;;;8.60;3.90;;;;;;;0.65;94.06;99438.81;4205064;28;20233;-68
2022/04/10 04:19:29;;;;;;;9.13;3.97;;;;;;;0.47;95.34;99440.94;4206600;28;20234;-65
2022/04/10 04:21:56;;;;;;;10.90;3.17;;;;;;;0.44;96.23;99438.53;4193595;28;21802;-68
2022/04/10 04:24:23;;;;;;;9.40;3.27;;;;;;;0.41;96.00;99447.44;4200669;28;20237;-66
2022/04/10 04:26:49;;;;;;;16.50;3.67;;;;;;;0.46;96.50;99448.91;4214804;28;20762;-68
2022/04/10 04:29:16;;;;;;;10.93;3.60;;;;;;;0.45;96.44;99452.47;4201943;28;20414;-67
2022/04/10 04:31:42;;;;;;;11.97;3.93;;;;;;;0.46;96.92;99452.34;4196007;28;20249;-67
2022/04/10 04:34:11;;;;;;;12.37;4.60;;;;;;;0.54;96.74;99454.44;4196913;28;20293;-67
2022/04/10 04:36:38;;;;;;;9.07;3.40;;;;;;;0.57;96.37;99456.84;4198938;28;22474;-67
2022/04/10 04:39:04;;;;;;;10.23;3.77;;;;;;;0.53;96.87;99455.38;4187903;28;20690;-64
2022/04/10 04:41:31;;;;;;;15.90;4.07;;;;;;;0.53;97.06;99463.25;4232358;28;20895;-67
2022/04/10 04:43:58;;;;;;;12.83;4.33;;;;;;;0.55;97.00;99469.22;4195572;28;20310;-65
2022/04/10 04:46:24;;;;;;;14.00;4.23;;;;;;;0.60;97.16;99467.94;4200796;28;20249;-66
2022/04/10 04:48:51;;;;;;;15.03;4.03;;;;;;;0.65;97.14;99472.84;4172778;28;20237;-66
2022/04/10 04:51:18;;;;;;;11.17;3.87;;;;;;;0.69;96.79;99476.94;4180917;28;20303;-67
2022/04/10 04:53:44;;;;;;;12.97;3.87;;;;;;;0.69;96.93;99476.94;4197703;28;20234;-67
2022/04/10 04:56:11;;;;;;;13.33;3.87;;;;;;;0.73;97.11;99483.66;4189683;28;20486;-66
2022/04/10 04:58:37;;;;;;;12.93;3.87;;;;;;;0.75;96.80;99481.78;4216958;28;23161;-67
2022/04/10 05:01:04;;;;;;;7.87;3.07;;;;;;;0.81;96.46;99489.19;4208774;28;20233;-68
2022/04/10 05:03:30;;;;;;;14.87;3.70;;;;;;;0.86;96.10;99486.25;4216003;28;20226;-66
2022/04/10 05:05:57;;;;;;;7.23;3.70;;;;;;;0.91;96.18;99493.78;4198386;28;20236;-68
2022/04/10 05:08:24;;;;;;;8.80;3.07;;;;;;;1.09;95.01;99500.38;4209688;28;23691;-68
2022/04/10 05:10:50;;;;;;;11.23;4.07;;;;;;;1.08;94.81;99497.84;4189154;28;20270;-68
2022/04/10 05:13:17;;;;;;;12.33;3.57;;;;;;;1.17;94.70;99502.44;4195106;28;20303;-69
2022/04/10 05:15:45;;;;;;;14.47;3.00;;;;;;;1.25;93.94;99505.38;4199093;28;20755;-68
2022/04/10 05:18:13;;;;;;;11.13;2.80;;;;;;;1.35;93.23;99505.53;4178168;28;20226;-68
2022/04/10 05:20:40;;;;;;;12.87;3.40;;;;;;;1.41;92.74;99507.75;4205903;28;20570;-67
2022/04/10 05:23:06;;;;;;;7.77;2.90;;;;;;;1.46;92.26;99513.50;4213502;28;21517;-66
2022/04/10 05:25:35;;;;;;;5.53;2.50;;;;;;;1.44;93.13;99510.97;4191554;28;20640;-69
2022/04/10 05:28:02;;;;;;;7.97;2.93;;;;;;;1.48;92.67;99515.06;4182190;28;20240;-67
2022/04/10 05:30:29;;;;;;;14.23;3.13;;;;;;;1.53;92.75;99517.34;4197222;28;20264;-65
2022/04/10 05:32:57;;;;;;;8.63;3.13;;;;;;;1.55;92.30;99507.59;4195188;28;20321;-66
2022/04/10 05:35:23;;;;;;;9.87;3.17;;;;;;;1.74;91.84;99516.75;4191416;28;20233;-66
2022/04/10 05:37:49;;;;;;;10.03;3.57;;;;;;;1.70;91.32;99518.75;4203371;28;21600;-68
2022/04/10 05:40:16;;;;;;;11.80;3.13;;;;;;;1.76;91.29;99513.06;4199499;28;22979;-69
2022/04/10 05:42:46;;;;;;;10.40;3.20;;;;;;;1.92;91.13;99522.41;4199089;28;20790;-69
2022/04/10 05:45:13;;;;;;;9.40;3.33;;;;;;;1.94;91.29;99523.16;4185224;28;20236;-68
2022/04/10 05:47:41;;;;;;;16.40;3.17;;;;;;;1.99;90.88;99521.03;4199970;28;20226;-67
2022/04/10 05:50:09;;;;;;;10.83;3.03;;;;;;;2.09;91.25;99528.13;4188333;28;20243;-67
2022/04/10 05:52:40;;;;;;;11.97;3.60;;;;;;;2.07;90.24;99524.75;4193584;28;20249;-67
2022/04/10 05:55:07;;;;;;;10.10;3.23;;;;;;;2.14;90.25;99538.28;4217720;28;20684;-65
2022/04/10 05:57:34;;;;;;;11.53;3.47;;;;;;;2.11;90.09;99526.22;4207241;28;20240;-66
2022/04/10 06:00:03;;;;;;;9.67;3.23;;;;;;;2.28;90.09;99532.84;4206516;28;21802;-67
2022/04/10 06:02:29;;;;;;;8.57;3.50;;;;;;;2.24;89.88;99535.78;4179543;28;20341;-66
2022/04/10 06:04:56;;;;;;;6.27;3.13;;;;;;;2.31;90.29;99540.47;4190293;28;20648;-68
2022/04/10 06:07:23;;;;;;;7.13;3.07;;;;;;;2.48;89.13;99538.38;4170608;28;20233;-67
2022/04/10 06:09:49;;;;;;;12.47;3.03;;;;;;;2.52;89.29;99534.56;4185525;28;20229;-67
2022/04/10 06:12:16;;;;;;;11.17;3.33;;;;;;;2.66;89.21;99546.66;4170121;28;25317;-67
2022/04/10 06:14:43;;;;;;;10.27;3.00;;;;;;;2.71;88.76;99539.25;4193950;28;21299;-67
2022/04/10 06:17:09;;;;;;;8.47;3.30;;;;;;;2.68;88.95;99534.25;4189882;28;20599;-69
2022/04/10 06:19:35;;;;;;;7.30;3.33;;;;;;;2.71;88.47;99534.00;4211733;28;23217;-71
2022/04/10 06:22:02;;;;;;;11.00;3.50;;;;;;;2.83;87.60;99538.31;4201583;28;20287;-67
2022/04/10 06:24:29;;;;;;;10.30;3.50;;;;;;;2.94;87.01;99546.22;4192255;28;20260;-67
2022/04/10 06:26:56;;;;;;;13.27;3.67;;;;;;;3.01;86.34;99546.56;4172562;28;20235;-68
2022/04/10 06:29:23;;;;;;;15.67;3.80;;;;;;;3.17;85.97;99548.84;4193924;28;20489;-68
2022/04/10 06:31:50;;;;;;;14.70;3.63;;;;;;;3.29;85.13;99541.81;4199708;28;20246;-67
2022/04/10 06:34:17;;;;;;;10.80;3.23;;;;;;;3.34;84.67;99547.53;4197804;28;21647;-65
2022/04/10 06:36:43;;;;;;;13.77;4.07;;;;;;;3.32;84.22;99544.19;4195292;28;22299;-68
2022/04/10 06:39:11;;;;;;;12.73;3.93;;;;;;;3.43;84.83;99548.59;4214562;28;20232;-66
2022/04/10 06:41:38;;;;;;;7.70;3.50;;;;;;;3.61;83.81;99565.56;4222239;28;20240;-67
2022/04/10 06:44:05;;;;;;;9.47;3.77;;;;;;;3.61;82.56;99556.84;4224368;28;20247;-67
2022/04/10 06:46:31;;;;;;;12.20;3.73;;;;;;;3.72;82.28;99562.06;4214556;28;20267;-68
2022/04/10 06:48:58;;;;;;;12.80;4.40;;;;;;;3.72;80.27;99556.78;4193491;28;20233;-68
2022/04/10 06:51:24;;;;;;;13.50;3.90;;;;;;;3.79;80.31;99558.84;4185875;28;20237;-67
2022/04/10 06:53:51;;;;;;;12.70;3.83;;;;;;;4.15;79.54;99563.88;4214329;28;20905;-66
2022/04/10 06:56:18;;;;;;;16.30;4.13;;;;;;;5.42;74.86;99568.94;4215467;28;20229;-67
2022/04/10 06:58:45;;;;;;;12.37;3.70;;;;;;;6.01;70.30;99580.50;4200809;28;20232;-66
2022/04/10 07:01:11;;;;;;;8.17;4.07;;;;;;;4.72;74.34;99572.34;4193170;28;20244;-69
2022/04/10 07:03:38;;;;;;;9.77;4.20;;;;;;;4.46;75.88;99571.88;4214931;28;22359;-68
2022/04/10 07:06:04;;;;;;;9.93;3.73;;;;;;;4.72;75.62;99577.59;4185627;28;21847;-68
2022/04/10 07:08:32;;;;;;;16.63;4.27;;;;;;;5.40;74.39;99572.69;4204332;28;20266;-69
2022/04/10 07:10:59;;;;;;;11.53;3.37;;;;;;;5.93;70.10;99575.88;4192774;28;20397;-69
2022/04/10 07:13:26;;;;;;;8.37;3.27;;;;;;;7.15;64.15;99584.19;4186742;28;23099;-70
2022/04/10 07:15:55;;;;;;;9.67;2.97;;;;;;;8.21;59.60;99592.56;4176617;28;20244;-71
2022/04/10 07:18:21;;;;;;;6.90;2.60;;;;;;;8.51;57.32;99593.19;4223742;28;21920;-64
2022/04/10 07:20:48;;;;;;;9.67;2.87;;;;;;;8.85;57.94;99595.16;4230667;28;20598;-68
2022/04/10 07:26:00;;;;;;;9.33;3.50;;;;;;;6.92;61.09;99588.97;4229396;28;20279;-66
2022/04/10 07:28:26;;;;;;;10.27;3.70;;;;;;;7.00;62.90;99584.78;4200020;28;20500;-66
2022/04/10 07:30:53;;;;;;;8.40;3.23;;;;;;;6.31;64.68;99584.03;4191447;28;21559;-68
2022/04/10 07:33:20;;;;;;;7.80;3.20;;;;;;;6.25;64.60;99584.56;4214341;28;20604;-67
2022/04/10 07:35:46;;;;;;;13.03;2.97;;;;;;;5.67;65.40;99591.41;4180744;28;23193;-65
2022/04/10 07:38:13;;;;;;;10.27;3.77;;;;;;;6.51;64.03;99593.63;4199066;28;25771;-69
2022/04/10 07:40:39;;;;;;;10.03;3.40;;;;;;;6.94;61.47;99602.88;4224871;28;20230;-68
2022/04/10 07:43:06;;;;;;;8.30;3.37;;;;;;;7.91;58.97;99606.97;4200391;28;20279;-68
2022/04/10 07:48:18;;;;;;;5.13;2.70;;;;;;;8.28;54.45;99613.16;4224503;28;21103;-67
2022/04/10 07:50:44;;;;;;;8.00;3.13;;;;;;;8.81;52.84;99615.84;4235616;28;20232;-66
2022/04/10 07:53:11;;;;;;;9.00;3.40;;;;;;;10.44;48.33;99628.25;4203907;28;20232;-68
2022/04/10 07:55:37;;;;;;;7.13;2.60;;;;;;;9.35;49.81;99620.19;4231389;28;20250;-70
2022/04/10 07:58:04;;;;;;;5.70;2.23;;;;;;;9.56;47.63;99625.94;4197861;28;26554;-67
2022/04/10 08:00:32;;;;;;;13.57;3.00;;;;;;;9.44;48.08;99635.19;4200745;28;20264;-67
2022/04/10 08:02:59;;;;;;;12.43;3.10;;;;;;;7.97;52.71;99616.97;4239869;28;21550;-67
2022/04/10 08:05:26;;;;;;;7.43;2.57;;;;;;;8.31;54.08;99619.00;4200721;28;20229;-67
2022/04/10 08:07:53;;;;;;;10.13;2.70;;;;;;;8.59;51.97;99611.00;4187064;28;21796;-67
2022/04/10 08:10:21;;;;;;;9.27;2.33;;;;;;;7.87;53.15;99616.22;4204732;28;21173;-68
2022/04/10 08:12:48;;;;;;;8.63;2.87;;;;;;;7.17;56.37;99619.28;4198583;28;20245;-69
2022/04/10 08:15:14;;;;;;;5.73;2.40;;;;;;;6.96;56.51;99627.38;4182173;28;20293;-67
2022/04/10 08:17:41;;;;;;;8.23;2.20;;;;;;;6.41;59.40;99626.31;4224115;28;20263;-67
2022/04/10 08:20:09;;;;;;;10.10;3.23;;;;;;;6.25;60.13;99625.06;4211170;28;20237;-66
2022/04/10 08:22:36;;;;;;;9.30;3.10;;;;;;;6.26;60.91;99626.72;4218347;28;20339;-68
2022/04/10 08:25:08;;;;;;;10.07;2.53;;;;;;;6.29;62.00;99629.06;4184288;28;20224;-69
2022/04/10 08:27:34;;;;;;;9.27;2.80;;;;;;;6.15;61.99;99628.63;4209035;28;20238;-65
2022/04/10 08:30:03;;;;;;;8.03;2.23;;;;;;;5.90;62.65;99626.34;4194562;28;20279;-68
2022/04/10 08:32:36;;;;;;;10.60;2.60;;;;;;;5.55;63.01;99636.47;4214195;28;21654;-68
2022/04/10 08:35:04;;;;;;;12.03;2.73;;;;;;;5.41;65.75;99638.53;4209712;28;21911;-67
2022/04/10 08:37:30;;;;;;;9.40;2.83;;;;;;;5.60;64.16;99643.03;4183225;28;21003;-68
2022/04/10 08:39:57;;;;;;;7.40;2.60;;;;;;;5.64;62.58;99640.97;4210831;28;20230;-68
2022/04/10 08:42:23;;;;;;;8.57;2.60;;;;;;;5.70;62.15;99645.72;4199102;28;22395;-68
2022/04/10 08:44:50;;;;;;;7.17;2.87;;;;;;;5.71;61.58;99647.38;4220839;28;21429;-68
2022/04/10 08:47:23;;;;;;;10.63;3.50;;;;;;;5.49;61.70;99651.88;4210676;28;20256;-67
2022/04/10 08:49:51;;;;;;;9.07;2.80;;;;;;;5.37;63.14;99657.38;4182913;28;20330;-67
2022/04/10 08:52:19;;;;;;;10.60;3.10;;;;;;;5.27;64.83;99667.88;4196854;28;21286;-68
2022/04/10 08:54:47;;;;;;;14.33;3.77;;;;;;;5.07;65.21;99659.81;4201846;28;20237;-68
2022/04/10 08:57:14;;;;;;;11.80;3.30;;;;;;;5.01;66.88;99677.97;4181662;28;20246;-67
2022/04/10 08:59:41;;;;;;;13.23;3.40;;;;;;;5.22;64.88;99670.03;4226552;28;20666;-75
2022/04/10 09:02:10;;;;;;;11.43;3.07;;;;;;;5.16;66.23;99670.59;4233878;28;21694;-65
2022/04/10 09:04:40;;;;;;;7.83;2.80;;;;;;;5.26;65.68;99679.38;4227164;28;22547;-68
2022/04/10 09:07:10;;;;;;;11.63;2.97;;;;;;;5.20;64.42;99670.19;4189381;28;20234;-69
2022/04/10 09:09:42;;;;;;;10.73;2.93;;;;;;;5.06;64.81;99684.53;4201622;28;20722;-68
2022/04/10 09:12:09;;;;;;;7.00;2.73;;;;;;;5.03;64.93;99682.16;4195976;28;20301;-66
2022/04/10 09:14:40;;;;;;;8.60;2.67;;;;;;;5.06;65.65;99688.97;4222646;28;20272;-67
2022/04/10 09:17:16;;;;;;;8.80;2.90;;;;;;;5.08;67.17;99685.25;4191764;28;22671;-66
2022/04/10 09:19:53;;;;;;;14.37;3.13;;;;;;;5.19;67.44;99696.69;4236057;28;20471;-69
2022/04/10 09:22:25;;;;;;;11.30;3.07;;;;;;;5.00;68.49;99682.41;4205332;28;20229;-65
2022/04/10 09:25:16;;;;;;;9.57;2.93;;;;;;;5.16;68.25;99683.78;4211007;28;20311;-66
2022/04/10 09:27:45;;;;;;;13.93;3.30;;;;;;;5.40;67.84;99691.41;4214763;28;26042;-67
2022/04/10 09:30:14;;;;;;;11.43;2.90;;;;;;;5.26;67.32;99688.13;4212173;28;20227;-65
2022/04/10 09:32:51;;;;;;;11.07;2.43;;;;;;;5.06;66.99;99697.72;4197177;28;22498;-66
2022/04/10 09:35:19;;;;;;;9.73;2.63;;;;;;;5.06;66.95;99691.63;4195493;28;20246;-65
2022/04/10 09:37:50;;;;;;;9.50;3.00;;;;;;;4.81;67.46;99688.38;4207738;28;20228;-66
2022/04/10 09:40:34;;;;;;;11.57;3.10;;;;;;;4.73;67.89;99701.34;4179265;28;20245;-67
2022/04/10 09:43:05;;;;;;;8.30;3.07;;;;;;;4.73;67.59;99697.84;4194810;28;20241;-65
2022/04/10 09:45:35;;;;;;;15.83;2.83;;;;;;;5.01;66.93;99707.81;4196148;28;20243;-64
2022/04/10 09:48:27;;;;;;;8.97;2.77;;;;;;;4.98;65.34;99712.50;4171222;28;20748;-66
2022/04/10 09:51:02;;;;;;;11.10;2.93;;;;;;;5.03;65.01;99698.00;4202356;28;20412;-66
2022/04/10 09:53:31;;;;;;;8.27;2.40;;;;;;;5.14;64.78;99698.88;4216771;28;20240;-67
2022/04/10 09:56:02;;;;;;;7.63;2.40;;;;;;;5.46;61.61;99712.84;4210248;28;23653;-66
2022/04/10 09:58:34;;;;;;;8.10;2.50;;;;;;;5.60;60.85;99721.41;4201902;28;20286;-70
2022/04/10 10:01:03;;;;;;;13.10;2.50;;;;;;;5.62;61.63;99711.50;4204870;28;22110;-66
2022/04/10 10:03:36;;;;;;;7.97;2.70;;;;;;;5.60;61.30;99721.41;4224686;28;20229;-67
2022/04/10 10:06:05;;;;;;;8.70;3.10;;;;;;;5.42;62.41;99716.69;4202346;28;20416;-66
2022/04/10 10:08:32;;;;;;;10.50;3.03;;;;;;;5.39;63.99;99716.97;4190276;28;20233;-66
2022/04/10 10:11:00;;;;;;;8.60;2.53;;;;;;;5.21;64.78;99721.97;4191293;28;20233;-65
2022/04/10 10:13:27;;;;;;;9.63;2.80;;;;;;;5.06;65.00;99720.63;4200876;28;20236;-63
2022/04/10 10:15:57;;;;;;;13.53;3.20;;;;;;;4.95;64.85;99713.59;4216683;28;20235;-63
2022/04/10 10:18:25;;;;;;;9.40;3.40;;;;;;;5.10;64.99;99714.09;4223401;28;22291;-65
2022/04/10 10:20:52;;;;;;;9.97;3.73;;;;;;;5.25;63.72;99712.84;4194404;28;20245;-63
2022/04/10 10:23:21;;;;;;;7.33;2.73;;;;;;;5.28;63.73;99714.38;4199202;28;21298;-67
2022/04/10 10:26:01;;;;;;;11.50;2.90;;;;;;;5.11;65.04;99720.25;4188541;28;20423;-72
2022/04/10 10:29:04;;;;;;;9.80;2.90;;;;;;;5.40;62.54;99720.44;4257882;28;20773;-61
2022/04/10 10:31:41;;;;;;;12.27;2.93;;;;;;;5.58;62.00;99704.84;4269884;28;20237;-66
2022/04/10 10:34:09;;;;;;;8.87;2.50;;;;;;;5.61;60.67;99723.06;4200875;28;21188;-65
2022/04/10 10:36:36;;;;;;;11.63;2.70;;;;;;;6.05;60.77;99723.69;4183976;28;20230;-66
2022/04/10 10:39:07;;;;;;;11.90;2.83;;;;;;;6.24;60.15;99718.47;4238715;28;20240;-73
2022/04/10 10:41:35;;;;;;;6.07;2.70;;;;;;;6.47;59.95;99705.03;4241434;28;21615;-65
2022/04/10 10:44:21;;;;;;;9.70;2.47;;;;;;;6.31;58.12;99714.31;4192881;28;21492;-66
2022/04/10 10:47:02;;;;;;;8.67;2.53;;;;;;;6.61;58.10;99722.31;4186078;28;20244;-66
2022/04/10 10:49:30;;;;;;;8.73;2.47;;;;;;;6.65;56.71;99734.25;4248645;28;20539;-64
2022/04/10 10:52:09;;;;;;;17.93;3.20;;;;;;;6.63;56.92;99730.94;4238318;28;20780;-65
2022/04/10 10:54:42;;;;;;;10.07;3.10;;;;;;;6.26;57.64;99727.09;4216819;28;20663;-66
2022/04/10 10:57:27;;;;;;;15.13;2.53;;;;;;;6.10;58.87;99732.88;4182668;28;20427;-66
2022/04/10 11:00:07;;;;;;;10.33;2.47;;;;;;;6.02;58.84;99732.72;4173499;28;22015;-68
2022/04/10 11:02:35;;;;;;;12.00;2.70;;;;;;;5.99;59.52;99726.88;4193448;28;20244;-68
2022/04/10 11:05:34;;;;;;;10.67;3.20;;;;;;;6.09;57.01;99740.97;4197240;28;20592;-63
2022/04/10 11:08:13;;;;;;;9.83;3.10;;;;;;;6.04;58.57;99729.94;4218975;28;22096;-66
2022/04/10 11:10:52;;;;;;;11.47;3.20;;;;;;;6.01;60.39;99732.84;4224739;28;20256;-65
2022/04/10 11:13:19;;;;;;;11.83;3.00;;;;;;;6.09;62.68;99733.03;4191501;28;20229;-67
2022/04/10 11:15:48;;;;;;;7.13;2.53;;;;;;;6.02;60.53;99739.81;4208248;28;20318;-69
2022/04/10 11:18:23;;;;;;;10.27;3.07;;;;;;;6.06;60.57;99743.84;4172600;28;20414;-68
2022/04/10 11:20:54;;;;;;;7.60;2.87;;;;;;;6.20;60.68;99742.66;4198600;28;20384;-66
2022/04/10 11:23:27;;;;;;;8.33;3.23;;;;;;;5.97;61.09;99734.94;4225066;28;20233;-65
2022/04/10 11:26:02;;;;;;;8.10;2.60;;;;;;;5.92;60.62;99747.66;4206689;28;20276;-68
2022/04/10 11:28:53;;;;;;;14.00;3.10;;;;;;;5.92;61.19;99740.59;4199408;28;20241;-64
2022/04/10 11:31:40;;;;;;;13.70;3.10;;;;;;;5.77;61.79;99741.06;4237942;28;21083;-67
2022/04/10 11:34:21;;;;;;;8.40;2.80;;;;;;;5.68;61.32;99761.97;4218096;28;20691;-67
2022/04/10 11:36:48;;;;;;;12.37;2.97;;;;;;;5.69;61.21;99763.66;4202864;28;20236;-65
2022/04/10 11:39:16;;;;;;;11.87;3.20;;;;;;;5.80;61.33;99754.81;4225536;28;20741;-62
2022/04/10 11:41:43;;;;;;;9.17;3.10;;;;;;;5.88;62.05;99757.66;4217795;28;20319;-63
2022/04/10 11:44:10;;;;;;;12.93;3.10;;;;;;;5.69;61.83;99762.84;4197032;28;21326;-62
2022/04/10 11:46:36;;;;;;;14.80;2.53;;;;;;;5.41;61.87;99765.16;4204008;28;20611;-67
2022/04/10 11:49:03;;;;;;;12.00;3.07;;;;;;;5.36;61.98;99767.34;4194416;28;20236;-62
2022/04/10 11:51:30;;;;;;;6.90;2.50;;;;;;;5.44;61.22;99780.72;4187655;28;20497;-61